sensor_id;sensor_type;location;lat;lon;timestamp;pressure;altitude;pressure_sealevel;temperature;humidity
37132;BME280;23035;50.032;21.978;2024-02-23T00:03:23;64611.31;;;-5.38;100.00
37132;BME280;23035;50.032;21.978;2024-02-23T00:08:28;64626.13;;;-5.24;100.00
37132;BME280;23035;50.032;21.978;2024-02-23T00:13:32;64604.03;;;-5.43;100.00
37132;BME280;23035;50.032;21.978;2024-02-23T00:18:37;64594.63;;;-5.50;100.00
37132;BME280;23035;50.032;21.978;2024-02-23T00:23:43;64632.59;;;-5.15;100.00
37132;BME280;23035;50.032;21.978;2024-02-23T00:28:48;64639.47;;;-5.09;100.00
37132;BME280;23035;50.032;21.978;2024-02-23T00:33:52;64608.28;;;-5.39;100.00
37132;BME280;23035;50.032;21.978;2024-02-23T00:38:58;64644.13;;;-5.07;100.00
37132;BME280;23035;50.032;21.978;2024-02-23T00:44:02;64620.00;;;-5.25;100.00
37132;BME280;23035;50.032;21.978;2024-02-23T00:49:07;64654.81;;;-4.94;100.00
37132;BME280;23035;50.032;21.978;2024-02-23T00:54:13;64685.41;;;-4.67;100.00
37132;BME280;23035;50.032;21.978;2024-02-23T00:59:17;64646.88;;;-5.02;100.00
37132;BME280;23035;50.032;21.978;2024-02-23T01:04:23;64674.41;;;-4.75;100.00
37132;BME280;23035;50.032;21.978;2024-02-23T01:09:29;64657.88;;;-4.94;100.00
37132;BME280;23035;50.032;21.978;2024-02-23T01:14:33;64654.94;;;-4.92;100.00
37132;BME280;23035;50.032;21.978;2024-02-23T01:19:37;64670.59;;;-4.81;100.00
37132;BME280;23035;50.032;21.978;2024-02-23T01:24:43;64655.16;;;-4.86;100.00
37132;BME280;23035;50.032;21.978;2024-02-23T01:29:48;64702.34;;;-4.51;100.00
37132;BME280;23035;50.032;21.978;2024-02-23T01:34:55;64676.75;;;-4.68;100.00
37132;BME280;23035;50.032;21.978;2024-02-23T01:40:00;64686.56;;;-4.64;100.00
37132;BME280;23035;50.032;21.978;2024-02-23T01:45:08;64681.94;;;-4.66;100.00
37132;BME280;23035;50.032;21.978;2024-02-23T01:50:12;64633.13;;;-5.15;100.00
37132;BME280;23035;50.032;21.978;2024-02-23T01:55:20;64691.25;;;-4.62;100.00
37132;BME280;23035;50.032;21.978;2024-02-23T02:00:24;64692.81;;;-4.60;100.00
37132;BME280;23035;50.032;21.978;2024-02-23T02:05:30;64696.41;;;-4.59;100.00
37132;BME280;23035;50.032;21.978;2024-02-23T02:10:36;64656.53;;;-4.90;100.00
37132;BME280;23035;50.032;21.978;2024-02-23T02:15:40;64683.94;;;-4.66;100.00
37132;BME280;23035;50.032;21.978;2024-02-23T02:20:51;64672.41;;;-4.75;100.00
37132;BME280;23035;50.032;21.978;2024-02-23T02:25:58;64692.94;;;-4.57;100.00
37132;BME280;23035;50.032;21.978;2024-02-23T02:31:03;64704.47;;;-4.49;100.00
37132;BME280;23035;50.032;21.978;2024-02-23T02:36:09;64668.69;;;-4.78;100.00
37132;BME280;23035;50.032;21.978;2024-02-23T02:41:16;64668.19;;;-4.79;100.00
37132;BME280;23035;50.032;21.978;2024-02-23T02:46:21;64653.25;;;-4.96;100.00
37132;BME280;23035;50.032;21.978;2024-02-23T02:51:25;64657.47;;;-4.92;100.00
37132;BME280;23035;50.032;21.978;2024-02-23T02:56:31;64643.28;;;-5.03;100.00
37132;BME280;23035;50.032;21.978;2024-02-23T03:01:35;64645.81;;;-5.03;100.00
37132;BME280;23035;50.032;21.978;2024-02-23T03:06:40;64687.75;;;-4.60;100.00
37132;BME280;23035;50.032;21.978;2024-02-23T03:11:46;64686.56;;;-4.64;100.00
37132;BME280;23035;50.032;21.978;2024-02-23T03:16:50;64703.63;;;-4.45;100.00
37132;BME280;23035;50.032;21.978;2024-02-23T03:21:55;64718.47;;;-4.30;100.00
37132;BME280;23035;50.032;21.978;2024-02-23T03:27:00;64664.88;;;-4.84;100.00
37132;BME280;23035;50.032;21.978;2024-02-23T03:32:05;64641.50;;;-5.09;100.00
37132;BME280;23035;50.032;21.978;2024-02-23T03:37:10;64671.44;;;-4.73;100.00
37132;BME280;23035;50.032;21.978;2024-02-23T03:42:15;64681.72;;;-4.71;100.00
37132;BME280;23035;50.032;21.978;2024-02-23T03:47:20;64663.00;;;-4.81;100.00
37132;BME280;23035;50.032;21.978;2024-02-23T03:52:24;64621.50;;;-5.26;100.00
37132;BME280;23035;50.032;21.978;2024-02-23T03:57:31;64651.34;;;-4.93;100.00
37132;BME280;23035;50.032;21.978;2024-02-23T04:02:36;64636.19;;;-5.14;100.00
37132;BME280;23035;50.032;21.978;2024-02-23T04:07:40;64673.16;;;-4.69;100.00
37132;BME280;23035;50.032;21.978;2024-02-23T04:12:46;64699.81;;;-4.51;100.00
37132;BME280;23035;50.032;21.978;2024-02-23T04:17:50;64693.56;;;-4.54;100.00
37132;BME280;23035;50.032;21.978;2024-02-23T04:22:54;64638.19;;;-5.15;100.00
37132;BME280;23035;50.032;21.978;2024-02-23T04:28:00;64628.47;;;-5.17;100.00
37132;BME280;23035;50.032;21.978;2024-02-23T04:33:04;64607.84;;;-5.37;100.00
37132;BME280;23035;50.032;21.978;2024-02-23T04:38:08;64595.69;;;-5.49;100.00
37132;BME280;23035;50.032;21.978;2024-02-23T04:43:15;64571.13;;;-5.77;100.00
37132;BME280;23035;50.032;21.978;2024-02-23T04:48:19;64579.59;;;-5.69;100.00
37132;BME280;23035;50.032;21.978;2024-02-23T04:53:23;64641.19;;;-5.05;100.00
37132;BME280;23035;50.032;21.978;2024-02-23T04:58:29;64584.47;;;-5.62;100.00
37132;BME280;23035;50.032;21.978;2024-02-23T05:03:33;64577.81;;;-5.63;100.00
37132;BME280;23035;50.032;21.978;2024-02-23T05:08:37;64641.06;;;-5.07;100.00
37132;BME280;23035;50.032;21.978;2024-02-23T05:13:43;64591.75;;;-5.57;100.00
37132;BME280;23035;50.032;21.978;2024-02-23T05:18:47;64615.13;;;-5.32;100.00
37132;BME280;23035;50.032;21.978;2024-02-23T05:23:51;64573.47;;;-5.70;100.00
37132;BME280;23035;50.032;21.978;2024-02-23T05:28:57;64579.59;;;-5.69;100.00
37132;BME280;23035;50.032;21.978;2024-02-23T05:34:03;64559.09;;;-5.86;100.00
37132;BME280;23035;50.032;21.978;2024-02-23T05:39:10;64564.19;;;-5.74;100.00
37132;BME280;23035;50.032;21.978;2024-02-23T05:44:16;64582.88;;;-5.63;100.00
37132;BME280;23035;50.032;21.978;2024-02-23T05:49:21;64563.72;;;-5.84;100.00
37132;BME280;23035;50.032;21.978;2024-02-23T05:54:25;64615.78;;;-5.29;100.00
37132;BME280;23035;50.032;21.978;2024-02-23T05:59:38;64606.03;;;-5.43;100.00
37132;BME280;23035;50.032;21.978;2024-02-23T06:04:42;64580.22;;;-5.66;100.00
37132;BME280;23035;50.032;21.978;2024-02-23T06:09:46;64566.06;;;-5.77;100.00
37132;BME280;23035;50.032;21.978;2024-02-23T06:14:51;64550.41;;;-5.99;100.00
37132;BME280;23035;50.032;21.978;2024-02-23T06:19:55;64581.81;;;-5.64;100.00
37132;BME280;23035;50.032;21.978;2024-02-23T06:25:07;64541.13;;;-6.03;100.00
37132;BME280;23035;50.032;21.978;2024-02-23T06:30:13;64522.75;;;-6.19;100.00
37132;BME280;23035;50.032;21.978;2024-02-23T06:35:17;64510.47;;;-6.33;100.00
37132;BME280;23035;50.032;21.978;2024-02-23T06:40:21;64531.06;;;-6.13;100.00
37132;BME280;23035;50.032;21.978;2024-02-23T06:45:29;64518.94;;;-6.25;100.00
37132;BME280;23035;50.032;21.978;2024-02-23T06:50:34;64568.59;;;-5.77;100.00
37132;BME280;23035;50.032;21.978;2024-02-23T06:55:39;64568.72;;;-5.74;100.00
37132;BME280;23035;50.032;21.978;2024-02-23T07:00:46;64516.28;;;-6.27;100.00
37132;BME280;23035;50.032;21.978;2024-02-23T07:05:50;64543.22;;;-6.01;100.00
37132;BME280;23035;50.032;21.978;2024-02-23T07:10:54;64513.00;;;-6.33;100.00
37132;BME280;23035;50.032;21.978;2024-02-23T07:16:01;64541.13;;;-6.03;100.00
37132;BME280;23035;50.032;21.978;2024-02-23T07:21:05;64563.72;;;-5.84;100.00
37132;BME280;23035;50.032;21.978;2024-02-23T07:26:10;64472.81;;;-6.72;100.00
37132;BME280;23035;50.032;21.978;2024-02-23T07:31:16;64486.44;;;-6.61;100.00
37132;BME280;23035;50.032;21.978;2024-02-23T07:36:20;64501.38;;;-6.44;100.00
37132;BME280;23035;50.032;21.978;2024-02-23T07:41:24;64535.31;;;-6.09;100.00
37132;BME280;23035;50.032;21.978;2024-02-23T07:46:30;64522.09;;;-6.22;100.00
37132;BME280;23035;50.032;21.978;2024-02-23T07:51:34;64504.66;;;-6.39;100.00
37132;BME280;23035;50.032;21.978;2024-02-23T07:56:38;64518.41;;;-6.25;100.00
37132;BME280;23035;50.032;21.978;2024-02-23T08:01:44;64469.66;;;-6.75;100.00
37132;BME280;23035;50.032;21.978;2024-02-23T08:06:49;64498.31;;;-6.45;100.00
37132;BME280;23035;50.032;21.978;2024-02-23T08:11:53;64500.94;;;-6.42;100.00
37132;BME280;23035;50.032;21.978;2024-02-23T08:17:00;64449.69;;;-6.91;100.00
37132;BME280;23035;50.032;21.978;2024-02-23T08:22:04;64503.72;;;-6.37;100.00
37132;BME280;23035;50.032;21.978;2024-02-23T08:27:09;64524.63;;;-6.22;100.00
37132;BME280;23035;50.032;21.978;2024-02-23T08:32:14;64463.72;;;-6.83;100.00
37132;BME280;23035;50.032;21.978;2024-02-23T08:37:20;64511.00;;;-6.32;100.00
37132;BME280;23035;50.032;21.978;2024-02-23T08:42:25;64545.38;;;-5.99;100.00
37132;BME280;23035;50.032;21.978;2024-02-23T08:47:31;64495.53;;;-6.50;100.00
37132;BME280;23035;50.032;21.978;2024-02-23T08:53:08;64545.47;;;-5.97;100.00
37132;BME280;23035;50.032;21.978;2024-02-23T09:04:29;64582.97;;;-5.61;100.00
37132;BME280;23035;50.032;21.978;2024-02-23T09:09:36;64574.94;;;-5.71;100.00
37132;BME280;23035;50.032;21.978;2024-02-23T09:20:51;64594.94;;;-5.54;100.00
37132;BME280;23035;50.032;21.978;2024-02-23T09:26:00;64553.16;;;-5.94;100.00
37132;BME280;23035;50.032;21.978;2024-02-23T09:31:06;64594.41;;;-5.55;100.00
37132;BME280;23035;50.032;21.978;2024-02-23T09:36:12;64541.38;;;-5.98;100.00
37132;BME280;23035;50.032;21.978;2024-02-23T09:41:19;64529.38;;;-6.17;100.00
37132;BME280;23035;50.032;21.978;2024-02-23T09:46:25;64536.78;;;-6.10;100.00
37132;BME280;23035;50.032;21.978;2024-02-23T09:51:31;64529.59;;;-6.12;100.00
37132;BME280;23035;50.032;21.978;2024-02-23T09:56:35;64580.94;;;-5.72;100.00
37132;BME280;23035;50.032;21.978;2024-02-23T10:01:41;64607.31;;;-5.37;100.00
37132;BME280;23035;50.032;21.978;2024-02-23T10:06:47;64669.53;;;-4.82;100.00
37132;BME280;23035;50.032;21.978;2024-02-23T10:11:54;64710.41;;;-4.41;100.00
37132;BME280;23035;50.032;21.978;2024-02-23T10:16:59;64672.41;;;-4.75;100.00
37132;BME280;23035;50.032;21.978;2024-02-23T10:22:06;64661.72;;;-4.87;100.00
37132;BME280;23035;50.032;21.978;2024-02-23T10:27:11;64670.59;;;-4.81;100.00
37132;BME280;23035;50.032;21.978;2024-02-23T10:32:15;64672.41;;;-4.75;100.00
37132;BME280;23035;50.032;21.978;2024-02-23T10:37:24;64654.94;;;-4.92;100.00
37132;BME280;23035;50.032;21.978;2024-02-23T10:42:33;64696.09;;;-4.54;100.00
37132;BME280;23035;50.032;21.978;2024-02-23T10:47:38;64673.47;;;-4.74;100.00
37132;BME280;23035;50.032;21.978;2024-02-23T10:52:44;64697.16;;;-4.53;100.00
37132;BME280;23035;50.032;21.978;2024-02-23T10:57:51;64677.47;;;-4.75;100.00
37132;BME280;23035;50.032;21.978;2024-02-23T11:02:57;64638.44;;;-5.10;100.00
37132;BME280;23035;50.032;21.978;2024-02-23T11:08:08;64651.13;;;-4.98;100.00
37132;BME280;23035;50.032;21.978;2024-02-23T11:13:15;64690.16;;;-4.63;100.00
37132;BME280;23035;50.032;21.978;2024-02-23T11:18:27;64649.53;;;-4.99;100.00
37132;BME280;23035;50.032;21.978;2024-02-23T11:24:01;64667.00;;;-4.82;100.00
37132;BME280;23035;50.032;21.978;2024-02-23T11:29:10;64678.88;;;-4.66;100.00
37132;BME280;23035;50.032;21.978;2024-02-23T11:34:22;64682.88;;;-4.67;100.00
37132;BME280;23035;50.032;21.978;2024-02-23T11:39:29;64676.94;;;-4.75;100.00
37132;BME280;23035;50.032;21.978;2024-02-23T11:44:33;64709.47;;;-4.39;100.00
37132;BME280;23035;50.032;21.978;2024-02-23T11:49:38;64724.59;;;-4.29;100.00
37132;BME280;23035;50.032;21.978;2024-02-23T11:54:44;64718.88;;;-4.32;100.00
37132;BME280;23035;50.032;21.978;2024-02-23T11:59:50;64731.59;;;-4.20;100.00
37132;BME280;23035;50.032;21.978;2024-02-23T12:04:55;64732.22;;;-4.17;100.00
37132;BME280;23035;50.032;21.978;2024-02-23T12:10:01;64748.94;;;-4.06;100.00
37132;BME280;23035;50.032;21.978;2024-02-23T12:15:08;64731.16;;;-4.18;100.00
37132;BME280;23035;50.032;21.978;2024-02-23T12:20:12;64684.78;;;-4.70;100.00
37132;BME280;23035;50.032;21.978;2024-02-23T12:25:18;64769.50;;;-3.89;100.00
37132;BME280;23035;50.032;21.978;2024-02-23T12:30:23;64797.28;;;-3.57;100.00
37132;BME280;23035;50.032;21.978;2024-02-23T12:35:29;64764.84;;;-3.91;100.00
37132;BME280;23035;50.032;21.978;2024-02-23T12:40:35;64740.88;;;-4.16;100.00
37132;BME280;23035;50.032;21.978;2024-02-23T12:45:39;64743.00;;;-4.14;100.00
37132;BME280;23035;50.032;21.978;2024-02-23T12:50:43;64771.44;;;-3.80;100.00
37132;BME280;23035;50.032;21.978;2024-02-23T12:55:50;64721.63;;;-4.27;100.00
37132;BME280;23035;50.032;21.978;2024-02-23T13:00:54;64726.28;;;-4.25;100.00
37132;BME280;23035;50.032;21.978;2024-02-23T13:05:58;64726.94;;;-4.22;100.00
37132;BME280;23035;50.032;21.978;2024-02-23T13:11:06;64727.88;;;-4.24;100.00
37132;BME280;23035;50.032;21.978;2024-02-23T13:16:11;64746.94;;;-4.06;100.00
37132;BME280;23035;50.032;21.978;2024-02-23T13:21:18;64816.97;;;-3.36;100.00
37132;BME280;23035;50.032;21.978;2024-02-23T13:26:23;64705.34;;;-4.41;100.00
37132;BME280;23035;50.032;21.978;2024-02-23T13:31:28;64690.28;;;-4.60;100.00
37132;BME280;23035;50.032;21.978;2024-02-23T13:36:32;64766.00;;;-3.87;100.00
37132;BME280;23035;50.032;21.978;2024-02-23T13:41:37;64719.41;;;-4.32;100.00
37132;BME280;23035;50.032;21.978;2024-02-23T13:46:42;64738.59;;;-4.11;100.00
37132;BME280;23035;50.032;21.978;2024-02-23T13:51:46;64704.69;;;-4.44;100.00
37132;BME280;23035;50.032;21.978;2024-02-23T13:56:52;64753.84;;;-3.99;100.00
37132;BME280;23035;50.032;21.978;2024-02-23T14:01:57;64757.44;;;-3.98;100.00
37132;BME280;23035;50.032;21.978;2024-02-23T14:07:03;64802.56;;;-3.52;100.00
37132;BME280;23035;50.032;21.978;2024-02-23T14:12:08;64760.06;;;-3.95;100.00
37132;BME280;23035;50.032;21.978;2024-02-23T14:17:13;64782.44;;;-3.71;100.00
37132;BME280;23035;50.032;21.978;2024-02-23T14:22:18;64797.91;;;-3.54;100.00
37132;BME280;23035;50.032;21.978;2024-02-23T14:27:24;64798.84;;;-3.56;100.00
37132;BME280;23035;50.032;21.978;2024-02-23T14:32:33;64769.31;;;-3.82;100.00
37132;BME280;23035;50.032;21.978;2024-02-23T14:37:38;64774.50;;;-3.79;100.00
37132;BME280;23035;50.032;21.978;2024-02-23T14:42:43;64761.66;;;-3.94;100.00
37132;BME280;23035;50.032;21.978;2024-02-23T14:47:47;64776.59;;;-3.77;100.00
37132;BME280;23035;50.032;21.978;2024-02-23T14:52:52;64828.00;;;-3.28;100.00
37132;BME280;23035;50.032;21.978;2024-02-23T14:57:58;64828.00;;;-3.28;100.00
37132;BME280;23035;50.032;21.978;2024-02-23T15:03:02;64858.75;;;-2.98;100.00
37132;BME280;23035;50.032;21.978;2024-02-23T15:08:07;64809.56;;;-3.43;100.00
37132;BME280;23035;50.032;21.978;2024-02-23T15:13:13;64806.16;;;-3.51;100.00
37132;BME280;23035;50.032;21.978;2024-02-23T15:18:18;64834.25;;;-3.24;100.00
37132;BME280;23035;50.032;21.978;2024-02-23T15:23:22;64839.25;;;-3.14;100.00
37132;BME280;23035;50.032;21.978;2024-02-23T15:28:28;64795.16;;;-3.59;100.00
37132;BME280;23035;50.032;21.978;2024-02-23T15:33:32;64747.78;;;-4.10;100.00
37132;BME280;23035;50.032;21.978;2024-02-23T15:38:37;64765.06;;;-3.86;100.00
37132;BME280;23035;50.032;21.978;2024-02-23T15:43:43;64799.63;;;-3.50;100.00
37132;BME280;23035;50.032;21.978;2024-02-23T15:48:47;64773.00;;;-3.78;100.00
37132;BME280;23035;50.032;21.978;2024-02-23T15:53:51;64798.22;;;-3.59;100.00
37132;BME280;23035;50.032;21.978;2024-02-23T15:58:57;64814.88;;;-3.38;100.00
37132;BME280;23035;50.032;21.978;2024-02-23T16:04:03;64766.13;;;-3.85;100.00
37132;BME280;23035;50.032;21.978;2024-02-23T16:09:07;64709.47;;;-4.39;100.00
37132;BME280;23035;50.032;21.978;2024-02-23T16:14:13;64753.41;;;-3.97;100.00
37132;BME280;23035;50.032;21.978;2024-02-23T16:19:17;64728.09;;;-4.19;100.00
37132;BME280;23035;50.032;21.978;2024-02-23T16:24:22;64710.28;;;-4.43;100.00
37132;BME280;23035;50.032;21.978;2024-02-23T16:29:28;64722.88;;;-4.34;100.00
37132;BME280;23035;50.032;21.978;2024-02-23T16:34:33;64737.94;;;-4.14;100.00
37132;BME280;23035;50.032;21.978;2024-02-23T16:39:38;64755.41;;;-3.97;100.00
37132;BME280;23035;50.032;21.978;2024-02-23T16:44:43;64730.53;;;-4.21;100.00
37132;BME280;23035;50.032;21.978;2024-02-23T16:49:47;64826.84;;;-3.31;100.00
37132;BME280;23035;50.032;21.978;2024-02-23T16:54:51;64827.59;;;-3.26;100.00
37132;BME280;23035;50.032;21.978;2024-02-23T16:59:57;64841.16;;;-3.18;100.00
37132;BME280;23035;50.032;21.978;2024-02-23T17:05:01;64805.75;;;-3.49;100.00
37132;BME280;23035;50.032;21.978;2024-02-23T17:10:06;64848.69;;;-3.08;100.00
37132;BME280;23035;50.032;21.978;2024-02-23T17:15:11;64798.75;;;-3.58;100.00
37132;BME280;23035;50.032;21.978;2024-02-23T17:20:16;64812.13;;;-3.43;100.00
37132;BME280;23035;50.032;21.978;2024-02-23T17:25:21;64816.34;;;-3.39;100.00
37132;BME280;23035;50.032;21.978;2024-02-23T17:30:26;64821.88;;;-3.29;100.00
37132;BME280;23035;50.032;21.978;2024-02-23T17:35:31;64787.84;;;-3.64;100.00
37132;BME280;23035;50.032;21.978;2024-02-23T17:40:35;64733.06;;;-4.21;100.00
37132;BME280;23035;50.032;21.978;2024-02-23T17:45:40;64665.72;;;-4.88;100.00
37132;BME280;23035;50.032;21.978;2024-02-23T17:50:45;64677.56;;;-4.72;100.00
37132;BME280;23035;50.032;21.978;2024-02-23T17:55:49;64658.00;;;-4.91;100.00
37132;BME280;23035;50.032;21.978;2024-02-23T18:00:57;64630.59;;;-5.15;100.00
37132;BME280;23035;50.032;21.978;2024-02-23T18:06:02;64616.59;;;-5.33;100.00
37132;BME280;23035;50.032;21.978;2024-02-23T18:11:06;64658.00;;;-4.91;100.00
37132;BME280;23035;50.032;21.978;2024-02-23T18:16:12;64625.84;;;-5.20;100.00
37132;BME280;23035;50.032;21.978;2024-02-23T18:21:21;64680.75;;;-4.69;100.00
37132;BME280;23035;50.032;21.978;2024-02-23T18:26:25;64700.66;;;-4.55;100.00
37132;BME280;23035;50.032;21.978;2024-02-23T18:31:31;64700.34;;;-4.50;100.00
37132;BME280;23035;50.032;21.978;2024-02-23T18:36:35;64703.00;;;-4.48;100.00
37132;BME280;23035;50.032;21.978;2024-02-23T18:41:39;64691.34;;;-4.59;100.00
37132;BME280;23035;50.032;21.978;2024-02-23T18:46:46;64697.06;;;-4.56;100.00
37132;BME280;23035;50.032;21.978;2024-02-23T18:51:51;64711.47;;;-4.40;100.00
37132;BME280;23035;50.032;21.978;2024-02-23T18:56:58;64701.63;;;-4.44;100.00
37132;BME280;23035;50.032;21.978;2024-02-23T19:02:05;64663.94;;;-4.83;100.00
37132;BME280;23035;50.032;21.978;2024-02-23T19:07:09;64733.06;;;-4.21;100.00
37132;BME280;23035;50.032;21.978;2024-02-23T19:12:14;64753.94;;;-3.96;100.00
37132;BME280;23035;50.032;21.978;2024-02-23T19:17:20;64702.47;;;-4.48;100.00
37132;BME280;23035;50.032;21.978;2024-02-23T19:22:24;64753.84;;;-3.99;100.00
37132;BME280;23035;50.032;21.978;2024-02-23T19:27:30;64728.41;;;-4.23;100.00
37132;BME280;23035;50.032;21.978;2024-02-23T19:32:40;64740.19;;;-4.10;100.00
37132;BME280;23035;50.032;21.978;2024-02-23T19:37:44;64708.69;;;-4.45;100.00
37132;BME280;23035;50.032;21.978;2024-02-23T19:42:49;64748.94;;;-4.06;100.00
37132;BME280;23035;50.032;21.978;2024-02-23T19:47:55;64708.41;;;-4.40;100.00
37132;BME280;23035;50.032;21.978;2024-02-23T19:52:59;64694.94;;;-4.58;100.00
37132;BME280;23035;50.032;21.978;2024-02-23T19:58:04;64673.34;;;-4.76;100.00
37132;BME280;23035;50.032;21.978;2024-02-23T20:03:10;64648.47;;;-5.00;100.00
37132;BME280;23035;50.032;21.978;2024-02-23T20:08:14;64651.00;;;-5.00;100.00
37132;BME280;23035;50.032;21.978;2024-02-23T20:13:18;64691.78;;;-4.61;100.00
37132;BME280;23035;50.032;21.978;2024-02-23T20:18:24;64657.78;;;-4.96;100.00
37132;BME280;23035;50.032;21.978;2024-02-23T20:23:28;64707.88;;;-4.41;100.00
37132;BME280;23035;50.032;21.978;2024-02-23T20:28:32;64661.19;;;-4.88;100.00
37132;BME280;23035;50.032;21.978;2024-02-23T20:33:40;64629.31;;;-5.21;100.00
37132;BME280;23035;50.032;21.978;2024-02-23T20:38:49;64693.88;;;-4.59;100.00
37132;BME280;23035;50.032;21.978;2024-02-23T20:43:54;64726.81;;;-4.25;100.00
37132;BME280;23035;50.032;21.978;2024-02-23T20:49:00;64743.88;;;-4.06;100.00
37132;BME280;23035;50.032;21.978;2024-02-23T20:54:04;64692.81;;;-4.60;100.00
37132;BME280;23035;50.032;21.978;2024-02-23T20:59:10;64734.75;;;-4.17;100.00
37132;BME280;23035;50.032;21.978;2024-02-23T21:04:16;64734.66;;;-4.20;100.00
37132;BME280;23035;50.032;21.978;2024-02-23T21:09:21;64705.09;;;-4.46;100.00
37132;BME280;23035;50.032;21.978;2024-02-23T21:14:25;64730.94;;;-4.23;100.00
37132;BME280;23035;50.032;21.978;2024-02-23T21:19:30;64727.56;;;-4.19;100.00
37132;BME280;23035;50.032;21.978;2024-02-23T21:24:35;64749.19;;;-4.01;100.00
37132;BME280;23035;50.032;21.978;2024-02-23T21:29:39;64764.00;;;-3.87;100.00
37132;BME280;23035;50.032;21.978;2024-02-23T21:34:48;64760.72;;;-3.92;100.00
37132;BME280;23035;50.032;21.978;2024-02-23T21:39:52;64752.78;;;-4.00;100.00
37132;BME280;23035;50.032;21.978;2024-02-23T21:44:56;64743.13;;;-4.12;100.00
37132;BME280;23035;50.032;21.978;2024-02-23T21:50:02;64764.63;;;-3.84;100.00
37132;BME280;23035;50.032;21.978;2024-02-23T21:55:07;64678.00;;;-4.74;100.00
37132;BME280;23035;50.032;21.978;2024-02-23T22:00:12;64777.66;;;-3.76;100.00
37132;BME280;23035;50.032;21.978;2024-02-23T22:05:18;64773.31;;;-3.83;100.00
37132;BME280;23035;50.032;21.978;2024-02-23T22:10:23;64752.13;;;-4.03;100.00
37132;BME280;23035;50.032;21.978;2024-02-23T22:15:27;64812.22;;;-3.40;100.00
37132;BME280;23035;50.032;21.978;2024-02-23T22:20:32;64768.13;;;-3.85;100.00
37132;BME280;23035;50.032;21.978;2024-02-23T22:25:38;64829.47;;;-3.29;100.00
37132;BME280;23035;50.032;21.978;2024-02-23T22:30:42;64753.41;;;-3.97;100.00
37132;BME280;23035;50.032;21.978;2024-02-23T22:35:47;64694.09;;;-4.54;100.00
37132;BME280;23035;50.032;21.978;2024-02-23T22:40:52;64722.06;;;-4.29;100.00
37132;BME280;23035;50.032;21.978;2024-02-23T22:45:56;64732.75;;;-4.17;100.00
37132;BME280;23035;50.032;21.978;2024-02-23T22:51:05;64771.94;;;-3.79;100.00
37132;BME280;23035;50.032;21.978;2024-02-23T22:56:10;64802.16;;;-3.50;100.00
37132;BME280;23035;50.032;21.978;2024-02-23T23:01:14;64838.06;;;-3.18;100.00
37132;BME280;23035;50.032;21.978;2024-02-23T23:06:20;64766.13;;;-3.85;100.00
37132;BME280;23035;50.032;21.978;2024-02-23T23:11:36;64790.91;;;-3.63;100.00
37132;BME280;23035;50.032;21.978;2024-02-23T23:16:40;64778.63;;;-3.78;100.00
37132;BME280;23035;50.032;21.978;2024-02-23T23:21:46;64743.97;;;-4.04;100.00
37132;BME280;23035;50.032;21.978;2024-02-23T23:26:51;64740.69;;;-4.09;100.00
37132;BME280;23035;50.032;21.978;2024-02-23T23:31:55;64719.94;;;-4.31;100.00
37132;BME280;23035;50.032;21.978;2024-02-23T23:37:01;64766.66;;;-3.84;100.00
37132;BME280;23035;50.032;21.978;2024-02-23T23:42:05;64791.97;;;-3.62;100.00
37132;BME280;23035;50.032;21.978;2024-02-23T23:47:09;64720.34;;;-4.34;100.00
37132;BME280;23035;50.032;21.978;2024-02-23T23:52:15;64744.09;;;-4.01;100.00
37132;BME280;23035;50.032;21.978;2024-02-23T23:57:19;64797.28;;;-3.57;100.00
